Alpine Light — V7UJ6 — position and weather

sailwx.info

Track history (hours):
 
Tides and Currents Weather Stations Pressure Air Temp Water Temp Dewpoint Dewpoint Depression Visibility Wind Speed Wind Dir Waves Ship Positions

Alpine Light

Last reported at 2017-Mar-22 17:34 UTC. Time now 2017-Mar-27 04:44 UTC.
Position N 01°10' E 103°47'.

Length 183 m; draft 11 m.

Type: Tanker. MMSI: 538003962.

Date/timePositionNaut miles runAvg speedWind from/ knotsBaromVisibWave heightAir tempDewpointWater temp
2017-Mar-22 17:34N 01°10' E 103°47'10 8.6
2017-Mar-22 16:21N 01°03' E 103°39'8 7.0
2017-Mar-22 15:09N 01°10' E 103°34'5 8.9
2017-Mar-22 14:34N 01°12' E 103°39'2 0.1
2017-Mar-21 11:33N 01°14' E 103°40'1 1.3
2017-Mar-21 10:33N 01°12' E 103°40'6 6.2
2017-Mar-21 09:32N 01°10' E 103°46'10 0.3
2017-Mar-19 22:32N 01°16' E 103°54'4 0.8
2017-Mar-19 17:28N 01°16' E 103°58'  
2017-Mar-13 00:23N 28°47' E 123°24'1113.6
2017-Mar-12 23:33N 28°58' E 123°26'  
Track history (hours):
 
Tides and Currents Weather Stations Pressure Air Temp Water Temp Dewpoint Dewpoint Depression Visibility Wind Speed Wind Dir Waves Ship Positions

Alpine Light

Last reported at 2017-Mar-22 17:34 UTC. Time now 2017-Mar-27 04:44 UTC.
Position N 01°10' E 103°47'.

Length 183 m; draft 11 m.

Type: Tanker. MMSI: 538003962.

Date/timePositionNaut miles runAvg speedWind from/ knotsBaromVisibWave heightAir tempDewpointWater temp
2017-Mar-22 17:34N 01°10' E 103°47'10 8.6
2017-Mar-22 16:21N 01°03' E 103°39'8 7.0
2017-Mar-22 15:09N 01°10' E 103°34'5 8.9
2017-Mar-22 14:34N 01°12' E 103°39'2 0.1
2017-Mar-21 11:33N 01°14' E 103°40'1 1.3
2017-Mar-21 10:33N 01°12' E 103°40'6 6.2
2017-Mar-21 09:32N 01°10' E 103°46'10 0.3
2017-Mar-19 22:32N 01°16' E 103°54'4 0.8
2017-Mar-19 17:28N 01°16' E 103°58'  
2017-Mar-13 00:23N 28°47' E 123°24'1113.6
2017-Mar-12 23:33N 28°58' E 123°26'  

Dump ship's entire track history